sensor_id;sensor_type;location;lat;lon;timestamp;temperature;humidity
39095;DHT22;24840;47.508;19.376;2023-10-08T00:00:24;15.50;90.80
39095;DHT22;24840;47.508;19.376;2023-10-08T00:03:08;15.40;91.40
39095;DHT22;24840;47.508;19.376;2023-10-08T00:05:39;15.40;90.80
39095;DHT22;24840;47.508;19.376;2023-10-08T00:08:06;15.50;91.20
39095;DHT22;24840;47.508;19.376;2023-10-08T00:10:36;15.40;91.20
39095;DHT22;24840;47.508;19.376;2023-10-08T00:13:05;15.60;90.40
39095;DHT22;24840;47.508;19.376;2023-10-08T00:15:37;15.70;90.00
39095;DHT22;24840;47.508;19.376;2023-10-08T00:18:07;15.70;90.10
39095;DHT22;24840;47.508;19.376;2023-10-08T00:20:37;15.70;90.30
39095;DHT22;24840;47.508;19.376;2023-10-08T00:23:13;15.60;91.10
39095;DHT22;24840;47.508;19.376;2023-10-08T00:25:43;15.50;91.50
39095;DHT22;24840;47.508;19.376;2023-10-08T00:28:12;15.50;92.30
39095;DHT22;24840;47.508;19.376;2023-10-08T00:30:42;15.40;93.20
39095;DHT22;24840;47.508;19.376;2023-10-08T00:33:09;15.30;92.80
39095;DHT22;24840;47.508;19.376;2023-10-08T00:35:41;15.30;94.20
39095;DHT22;24840;47.508;19.376;2023-10-08T00:38:10;15.20;94.10
39095;DHT22;24840;47.508;19.376;2023-10-08T00:40:46;15.30;93.80
39095;DHT22;24840;47.508;19.376;2023-10-08T00:45:58;15.50;92.90
39095;DHT22;24840;47.508;19.376;2023-10-08T00:48:28;15.50;92.50
39095;DHT22;24840;47.508;19.376;2023-10-08T00:51:00;15.50;91.20
39095;DHT22;24840;47.508;19.376;2023-10-08T00:53:41;15.60;91.90
39095;DHT22;24840;47.508;19.376;2023-10-08T00:56:09;15.60;92.00
39095;DHT22;24840;47.508;19.376;2023-10-08T00:58:43;15.70;90.80
39095;DHT22;24840;47.508;19.376;2023-10-08T01:01:12;15.90;91.00
39095;DHT22;24840;47.508;19.376;2023-10-08T01:03:42;16.30;88.00
39095;DHT22;24840;47.508;19.376;2023-10-08T01:06:13;16.60;84.90
39095;DHT22;24840;47.508;19.376;2023-10-08T01:08:41;16.60;86.70
39095;DHT22;24840;47.508;19.376;2023-10-08T01:11:17;16.60;84.60
39095;DHT22;24840;47.508;19.376;2023-10-08T01:13:43;16.80;84.40
39095;DHT22;24840;47.508;19.376;2023-10-08T01:16:11;16.80;84.00
39095;DHT22;24840;47.508;19.376;2023-10-08T01:18:37;17.10;83.30
39095;DHT22;24840;47.508;19.376;2023-10-08T01:21:08;16.80;84.20
39095;DHT22;24840;47.508;19.376;2023-10-08T01:23:36;16.70;83.70
39095;DHT22;24840;47.508;19.376;2023-10-08T01:26:04;16.50;86.40
39095;DHT22;24840;47.508;19.376;2023-10-08T01:28:38;16.40;85.30
39095;DHT22;24840;47.508;19.376;2023-10-08T01:31:04;16.30;87.40
39095;DHT22;24840;47.508;19.376;2023-10-08T01:33:30;16.30;86.80
39095;DHT22;24840;47.508;19.376;2023-10-08T01:36:04;16.20;88.20
39095;DHT22;24840;47.508;19.376;2023-10-08T01:38:31;16.30;86.80
39095;DHT22;24840;47.508;19.376;2023-10-08T01:40:58;16.20;87.60
39095;DHT22;24840;47.508;19.376;2023-10-08T01:43:31;16.30;85.90
39095;DHT22;24840;47.508;19.376;2023-10-08T01:45:56;16.40;86.90
39095;DHT22;24840;47.508;19.376;2023-10-08T01:48:22;16.40;86.10
39095;DHT22;24840;47.508;19.376;2023-10-08T01:50:59;16.60;86.30
39095;DHT22;24840;47.508;19.376;2023-10-08T01:53:29;16.50;86.10
39095;DHT22;24840;47.508;19.376;2023-10-08T01:55:57;16.60;85.90
39095;DHT22;24840;47.508;19.376;2023-10-08T01:58:23;16.50;85.80
39095;DHT22;24840;47.508;19.376;2023-10-08T02:00:49;16.60;85.20
39095;DHT22;24840;47.508;19.376;2023-10-08T02:03:17;16.50;86.60
39095;DHT22;24840;47.508;19.376;2023-10-08T02:05:44;16.50;85.40
39095;DHT22;24840;47.508;19.376;2023-10-08T02:08:11;16.40;85.80
39095;DHT22;24840;47.508;19.376;2023-10-08T02:10:39;16.30;86.60
39095;DHT22;24840;47.508;19.376;2023-10-08T02:13:09;16.30;87.10
39095;DHT22;24840;47.508;19.376;2023-10-08T02:15:36;16.20;88.50
39095;DHT22;24840;47.508;19.376;2023-10-08T02:18:03;16.20;87.60
39095;DHT22;24840;47.508;19.376;2023-10-08T02:20:29;16.00;89.50
39095;DHT22;24840;47.508;19.376;2023-10-08T02:22:55;15.90;90.40
39095;DHT22;24840;47.508;19.376;2023-10-08T02:25:21;15.80;90.10
39095;DHT22;24840;47.508;19.376;2023-10-08T02:27:48;15.70;90.50
39095;DHT22;24840;47.508;19.376;2023-10-08T02:30:14;15.60;90.30
39095;DHT22;24840;47.508;19.376;2023-10-08T02:32:40;15.60;90.30
39095;DHT22;24840;47.508;19.376;2023-10-08T02:35:12;15.60;90.70
39095;DHT22;24840;47.508;19.376;2023-10-08T02:37:39;15.50;91.50
39095;DHT22;24840;47.508;19.376;2023-10-08T02:40:07;15.40;90.80
39095;DHT22;24840;47.508;19.376;2023-10-08T02:42:42;15.40;91.30
39095;DHT22;24840;47.508;19.376;2023-10-08T02:45:11;15.30;91.60
39095;DHT22;24840;47.508;19.376;2023-10-08T02:47:41;15.40;90.40
39095;DHT22;24840;47.508;19.376;2023-10-08T02:50:10;15.50;90.20
39095;DHT22;24840;47.508;19.376;2023-10-08T02:52:36;15.70;88.40
39095;DHT22;24840;47.508;19.376;2023-10-08T02:55:02;15.70;89.10
39095;DHT22;24840;47.508;19.376;2023-10-08T02:57:29;15.70;89.60
39095;DHT22;24840;47.508;19.376;2023-10-08T02:59:55;15.70;90.10
39095;DHT22;24840;47.508;19.376;2023-10-08T03:02:21;15.70;90.10
39095;DHT22;24840;47.508;19.376;2023-10-08T03:04:48;16.10;87.40
39095;DHT22;24840;47.508;19.376;2023-10-08T03:07:17;16.10;87.60
39095;DHT22;24840;47.508;19.376;2023-10-08T03:09:58;16.30;86.80
39095;DHT22;24840;47.508;19.376;2023-10-08T03:12:46;16.30;86.40
39095;DHT22;24840;47.508;19.376;2023-10-08T03:15:13;16.20;86.90
39095;DHT22;24840;47.508;19.376;2023-10-08T03:17:41;16.10;87.20
39095;DHT22;24840;47.508;19.376;2023-10-08T03:20:15;16.20;87.10
39095;DHT22;24840;47.508;19.376;2023-10-08T03:22:59;16.30;88.40
39095;DHT22;24840;47.508;19.376;2023-10-08T03:25:25;16.30;87.40
39095;DHT22;24840;47.508;19.376;2023-10-08T03:27:52;16.40;86.20
39095;DHT22;24840;47.508;19.376;2023-10-08T03:30:20;16.40;86.90
39095;DHT22;24840;47.508;19.376;2023-10-08T03:32:45;16.30;89.90
39095;DHT22;24840;47.508;19.376;2023-10-08T03:35:16;16.00;90.40
39095;DHT22;24840;47.508;19.376;2023-10-08T03:37:43;16.10;89.20
39095;DHT22;24840;47.508;19.376;2023-10-08T03:40:11;16.10;87.80
39095;DHT22;24840;47.508;19.376;2023-10-08T03:43:08;16.20;88.00
39095;DHT22;24840;47.508;19.376;2023-10-08T03:45:45;16.20;87.50
39095;DHT22;24840;47.508;19.376;2023-10-08T03:48:13;16.30;87.10
39095;DHT22;24840;47.508;19.376;2023-10-08T03:50:41;16.10;87.50
39095;DHT22;24840;47.508;19.376;2023-10-08T03:53:08;16.00;88.10
39095;DHT22;24840;47.508;19.376;2023-10-08T03:55:40;15.80;89.80
39095;DHT22;24840;47.508;19.376;2023-10-08T03:58:08;15.80;89.40
39095;DHT22;24840;47.508;19.376;2023-10-08T04:00:45;15.70;90.00
39095;DHT22;24840;47.508;19.376;2023-10-08T04:03:11;15.50;91.10
39095;DHT22;24840;47.508;19.376;2023-10-08T04:05:38;15.50;92.30
39095;DHT22;24840;47.508;19.376;2023-10-08T04:08:24;15.30;92.10
39095;DHT22;24840;47.508;19.376;2023-10-08T04:11:05;15.20;92.20
39095;DHT22;24840;47.508;19.376;2023-10-08T04:13:34;15.10;93.70
39095;DHT22;24840;47.508;19.376;2023-10-08T04:16:10;15.00;93.30
39095;DHT22;24840;47.508;19.376;2023-10-08T04:18:36;14.80;94.10
39095;DHT22;24840;47.508;19.376;2023-10-08T04:21:06;14.70;94.50
39095;DHT22;24840;47.508;19.376;2023-10-08T04:23:41;14.70;93.50
39095;DHT22;24840;47.508;19.376;2023-10-08T04:26:10;14.70;93.90
39095;DHT22;24840;47.508;19.376;2023-10-08T04:28:36;14.70;94.10
39095;DHT22;24840;47.508;19.376;2023-10-08T04:31:03;14.80;93.90
39095;DHT22;24840;47.508;19.376;2023-10-08T04:33:41;14.70;93.90
39095;DHT22;24840;47.508;19.376;2023-10-08T04:36:07;15.00;93.40
39095;DHT22;24840;47.508;19.376;2023-10-08T04:38:33;15.20;92.80
39095;DHT22;24840;47.508;19.376;2023-10-08T04:41:05;15.30;92.80
39095;DHT22;24840;47.508;19.376;2023-10-08T04:43:35;15.30;92.80
39095;DHT22;24840;47.508;19.376;2023-10-08T04:46:04;15.30;92.50
39095;DHT22;24840;47.508;19.376;2023-10-08T04:48:46;15.40;92.40
39095;DHT22;24840;47.508;19.376;2023-10-08T04:51:12;15.60;92.30
39095;DHT22;24840;47.508;19.376;2023-10-08T04:53:39;15.70;91.60
39095;DHT22;24840;47.508;19.376;2023-10-08T04:56:14;15.80;91.80
39095;DHT22;24840;47.508;19.376;2023-10-08T04:58:46;15.70;92.00
39095;DHT22;24840;47.508;19.376;2023-10-08T05:01:17;15.70;91.70
39095;DHT22;24840;47.508;19.376;2023-10-08T05:03:47;15.60;92.50
39095;DHT22;24840;47.508;19.376;2023-10-08T05:06:26;15.60;92.10
39095;DHT22;24840;47.508;19.376;2023-10-08T05:09:21;15.40;92.90
39095;DHT22;24840;47.508;19.376;2023-10-08T05:11:48;15.30;93.60
39095;DHT22;24840;47.508;19.376;2023-10-08T05:14:24;15.10;94.10
39095;DHT22;24840;47.508;19.376;2023-10-08T05:19:43;15.20;93.90
39095;DHT22;24840;47.508;19.376;2023-10-08T05:22:28;15.20;94.10
39095;DHT22;24840;47.508;19.376;2023-10-08T05:24:54;15.20;94.40
39095;DHT22;24840;47.508;19.376;2023-10-08T05:27:48;15.20;94.60
39095;DHT22;24840;47.508;19.376;2023-10-08T05:32:43;15.90;93.10
39095;DHT22;24840;47.508;19.376;2023-10-08T05:35:28;16.10;92.80
39095;DHT22;24840;47.508;19.376;2023-10-08T05:38:07;16.50;92.00
39095;DHT22;24840;47.508;19.376;2023-10-08T05:40:42;16.80;91.40
39095;DHT22;24840;47.508;19.376;2023-10-08T05:43:34;17.20;90.30
39095;DHT22;24840;47.508;19.376;2023-10-08T05:46:06;17.30;90.50
39095;DHT22;24840;47.508;19.376;2023-10-08T05:51:37;17.40;90.30
39095;DHT22;24840;47.508;19.376;2023-10-08T05:54:20;17.40;90.50
39095;DHT22;24840;47.508;19.376;2023-10-08T05:56:57;17.70;89.30
39095;DHT22;24840;47.508;19.376;2023-10-08T05:59:52;17.80;88.50
39095;DHT22;24840;47.508;19.376;2023-10-08T06:02:24;17.80;89.30
39095;DHT22;24840;47.508;19.376;2023-10-08T06:04:56;18.00;87.90
39095;DHT22;24840;47.508;19.376;2023-10-08T06:07:45;18.10;87.60
39095;DHT22;24840;47.508;19.376;2023-10-08T06:13:11;18.30;86.90
39095;DHT22;24840;47.508;19.376;2023-10-08T06:15:48;18.40;86.70
39095;DHT22;24840;47.508;19.376;2023-10-08T06:18:39;18.40;86.80
39095;DHT22;24840;47.508;19.376;2023-10-08T06:21:06;18.30;87.90
39095;DHT22;24840;47.508;19.376;2023-10-08T06:23:37;18.40;87.10
39095;DHT22;24840;47.508;19.376;2023-10-08T06:26:03;18.40;87.70
39095;DHT22;24840;47.508;19.376;2023-10-08T06:28:35;18.60;85.60
39095;DHT22;24840;47.508;19.376;2023-10-08T06:31:02;18.70;86.20
39095;DHT22;24840;47.508;19.376;2023-10-08T06:33:32;18.70;86.30
39095;DHT22;24840;47.508;19.376;2023-10-08T06:36:02;18.70;86.20
39095;DHT22;24840;47.508;19.376;2023-10-08T06:38:34;18.80;86.50
39095;DHT22;24840;47.508;19.376;2023-10-08T06:41:00;18.80;87.80
39095;DHT22;24840;47.508;19.376;2023-10-08T06:43:34;19.00;85.80
39095;DHT22;24840;47.508;19.376;2023-10-08T06:46:03;18.90;86.80
39095;DHT22;24840;47.508;19.376;2023-10-08T06:48:29;19.00;85.90
39095;DHT22;24840;47.508;19.376;2023-10-08T06:50:56;19.00;86.00
39095;DHT22;24840;47.508;19.376;2023-10-08T06:53:33;18.90;86.80
39095;DHT22;24840;47.508;19.376;2023-10-08T06:55:59;19.00;86.40
39095;DHT22;24840;47.508;19.376;2023-10-08T06:58:30;18.90;87.10
39095;DHT22;24840;47.508;19.376;2023-10-08T07:01:00;19.00;86.40
39095;DHT22;24840;47.508;19.376;2023-10-08T07:03:31;18.90;87.00
39095;DHT22;24840;47.508;19.376;2023-10-08T07:05:57;18.90;87.20
39095;DHT22;24840;47.508;19.376;2023-10-08T07:08:26;18.80;86.90
39095;DHT22;24840;47.508;19.376;2023-10-08T07:10:53;18.80;87.40
39095;DHT22;24840;47.508;19.376;2023-10-08T07:13:20;18.70;88.40
39095;DHT22;24840;47.508;19.376;2023-10-08T07:15:50;18.70;87.80
39095;DHT22;24840;47.508;19.376;2023-10-08T07:18:16;18.80;87.50
39095;DHT22;24840;47.508;19.376;2023-10-08T07:20:55;18.80;88.20
39095;DHT22;24840;47.508;19.376;2023-10-08T07:23:27;18.90;86.60
39095;DHT22;24840;47.508;19.376;2023-10-08T07:26:01;19.10;88.10
39095;DHT22;24840;47.508;19.376;2023-10-08T07:28:42;19.20;87.80
39095;DHT22;24840;47.508;19.376;2023-10-08T07:31:19;19.70;85.40
39095;DHT22;24840;47.508;19.376;2023-10-08T07:33:53;20.00;85.90
39095;DHT22;24840;47.508;19.376;2023-10-08T07:36:25;20.30;83.70
39095;DHT22;24840;47.508;19.376;2023-10-08T07:39:22;20.60;83.50
39095;DHT22;24840;47.508;19.376;2023-10-08T07:42:08;20.60;83.40
39095;DHT22;24840;47.508;19.376;2023-10-08T07:45:27;20.60;83.50
39095;DHT22;24840;47.508;19.376;2023-10-08T07:47:47;20.50;83.70
39095;DHT22;24840;47.508;19.376;2023-10-08T07:50:14;20.50;82.70
39095;DHT22;24840;47.508;19.376;2023-10-08T07:52:42;20.50;83.00
39095;DHT22;24840;47.508;19.376;2023-10-08T07:55:10;20.70;83.20
39095;DHT22;24840;47.508;19.376;2023-10-08T07:57:36;21.00;82.20
39095;DHT22;24840;47.508;19.376;2023-10-08T08:00:02;21.50;80.90
39095;DHT22;24840;47.508;19.376;2023-10-08T08:02:44;21.70;81.10
39095;DHT22;24840;47.508;19.376;2023-10-08T08:05:10;22.00;81.90
39095;DHT22;24840;47.508;19.376;2023-10-08T08:07:43;22.10;81.20
39095;DHT22;24840;47.508;19.376;2023-10-08T08:10:11;22.40;81.30
39095;DHT22;24840;47.508;19.376;2023-10-08T08:12:37;22.20;81.00
39095;DHT22;24840;47.508;19.376;2023-10-08T08:15:03;22.40;80.50
39095;DHT22;24840;47.508;19.376;2023-10-08T08:17:43;22.60;80.30
39095;DHT22;24840;47.508;19.376;2023-10-08T08:20:13;22.40;80.70
39095;DHT22;24840;47.508;19.376;2023-10-08T08:22:48;22.40;79.80
39095;DHT22;24840;47.508;19.376;2023-10-08T08:25:19;22.00;81.70
39095;DHT22;24840;47.508;19.376;2023-10-08T08:28:00;22.60;81.70
39095;DHT22;24840;47.508;19.376;2023-10-08T08:30:26;23.20;81.40
39095;DHT22;24840;47.508;19.376;2023-10-08T08:32:52;23.90;80.40
39095;DHT22;24840;47.508;19.376;2023-10-08T08:35:20;23.80;77.10
39095;DHT22;24840;47.508;19.376;2023-10-08T08:37:46;24.00;79.00
39095;DHT22;24840;47.508;19.376;2023-10-08T08:40:18;23.80;77.40
39095;DHT22;24840;47.508;19.376;2023-10-08T08:42:56;23.80;77.70
39095;DHT22;24840;47.508;19.376;2023-10-08T08:45:24;24.10;77.00
39095;DHT22;24840;47.508;19.376;2023-10-08T08:47:54;24.20;77.70
39095;DHT22;24840;47.508;19.376;2023-10-08T08:50:21;24.30;75.50
39095;DHT22;24840;47.508;19.376;2023-10-08T08:52:50;24.60;75.20
39095;DHT22;24840;47.508;19.376;2023-10-08T08:55:17;25.00;75.70
39095;DHT22;24840;47.508;19.376;2023-10-08T08:57:46;25.40;75.40
39095;DHT22;24840;47.508;19.376;2023-10-08T09:00:13;25.40;73.60
39095;DHT22;24840;47.508;19.376;2023-10-08T09:02:40;25.30;74.80
39095;DHT22;24840;47.508;19.376;2023-10-08T09:05:06;25.10;74.00
39095;DHT22;24840;47.508;19.376;2023-10-08T09:10:26;24.40;74.80
39095;DHT22;24840;47.508;19.376;2023-10-08T09:12:57;23.90;77.30
39095;DHT22;24840;47.508;19.376;2023-10-08T09:15:27;23.40;78.00
39095;DHT22;24840;47.508;19.376;2023-10-08T09:17:56;23.00;79.70
39095;DHT22;24840;47.508;19.376;2023-10-08T09:20:25;22.70;80.10
39095;DHT22;24840;47.508;19.376;2023-10-08T09:23:12;22.60;81.70
39095;DHT22;24840;47.508;19.376;2023-10-08T09:25:43;22.40;81.80
39095;DHT22;24840;47.508;19.376;2023-10-08T09:28:09;22.30;82.30
39095;DHT22;24840;47.508;19.376;2023-10-08T09:30:39;22.10;82.60
39095;DHT22;24840;47.508;19.376;2023-10-08T09:33:09;21.90;83.10
39095;DHT22;24840;47.508;19.376;2023-10-08T09:35:35;21.80;84.10
39095;DHT22;24840;47.508;19.376;2023-10-08T09:38:06;21.80;84.70
39095;DHT22;24840;47.508;19.376;2023-10-08T09:40:40;21.70;85.10
39095;DHT22;24840;47.508;19.376;2023-10-08T09:43:12;21.60;85.20
39095;DHT22;24840;47.508;19.376;2023-10-08T09:45:41;21.40;85.60
39095;DHT22;24840;47.508;19.376;2023-10-08T09:48:11;21.30;86.00
39095;DHT22;24840;47.508;19.376;2023-10-08T09:50:41;21.20;86.20
39095;DHT22;24840;47.508;19.376;2023-10-08T09:53:09;21.20;86.40
39095;DHT22;24840;47.508;19.376;2023-10-08T09:55:55;21.00;86.90
39095;DHT22;24840;47.508;19.376;2023-10-08T09:58:22;20.90;87.90
39095;DHT22;24840;47.508;19.376;2023-10-08T10:00:50;20.90;88.20
39095;DHT22;24840;47.508;19.376;2023-10-08T10:03:18;21.00;88.10
39095;DHT22;24840;47.508;19.376;2023-10-08T10:05:51;21.00;87.80
39095;DHT22;24840;47.508;19.376;2023-10-08T10:08:17;20.80;88.40
39095;DHT22;24840;47.508;19.376;2023-10-08T10:10:43;20.80;89.00
39095;DHT22;24840;47.508;19.376;2023-10-08T10:13:16;20.50;89.60
39095;DHT22;24840;47.508;19.376;2023-10-08T10:15:43;20.30;90.10
39095;DHT22;24840;47.508;19.376;2023-10-08T10:18:13;20.40;90.20
39095;DHT22;24840;47.508;19.376;2023-10-08T10:20:45;20.20;90.00
39095;DHT22;24840;47.508;19.376;2023-10-08T10:26:35;20.10;90.60
39095;DHT22;24840;47.508;19.376;2023-10-08T10:31:54;20.20;90.60
39095;DHT22;24840;47.508;19.376;2023-10-08T10:34:26;20.30;90.80
39095;DHT22;24840;47.508;19.376;2023-10-08T10:36:57;20.20;91.00
39095;DHT22;24840;47.508;19.376;2023-10-08T10:39:25;20.10;91.00
39095;DHT22;24840;47.508;19.376;2023-10-08T10:41:53;20.00;91.00
39095;DHT22;24840;47.508;19.376;2023-10-08T10:44:24;20.30;90.60
39095;DHT22;24840;47.508;19.376;2023-10-08T10:46:50;20.20;90.70
39095;DHT22;24840;47.508;19.376;2023-10-08T10:49:23;20.00;90.50
39095;DHT22;24840;47.508;19.376;2023-10-08T10:51:57;20.00;91.00
39095;DHT22;24840;47.508;19.376;2023-10-08T10:54:23;20.00;90.90
39095;DHT22;24840;47.508;19.376;2023-10-08T10:56:53;19.90;90.80
39095;DHT22;24840;47.508;19.376;2023-10-08T10:59:43;20.00;90.80
39095;DHT22;24840;47.508;19.376;2023-10-08T11:02:19;20.30;90.70
39095;DHT22;24840;47.508;19.376;2023-10-08T11:04:56;20.50;90.70
39095;DHT22;24840;47.508;19.376;2023-10-08T11:07:33;20.50;90.40
39095;DHT22;24840;47.508;19.376;2023-10-08T11:10:00;20.20;90.30
39095;DHT22;24840;47.508;19.376;2023-10-08T11:12:26;20.10;90.70
39095;DHT22;24840;47.508;19.376;2023-10-08T11:15:11;19.80;90.70
39095;DHT22;24840;47.508;19.376;2023-10-08T11:17:41;19.70;90.20
39095;DHT22;24840;47.508;19.376;2023-10-08T11:20:27;19.70;90.30
39095;DHT22;24840;47.508;19.376;2023-10-08T11:22:53;19.60;90.30
39095;DHT22;24840;47.508;19.376;2023-10-08T11:25:23;19.60;90.60
39095;DHT22;24840;47.508;19.376;2023-10-08T11:27:56;19.50;91.00
39095;DHT22;24840;47.508;19.376;2023-10-08T11:30:28;19.50;91.20
39095;DHT22;24840;47.508;19.376;2023-10-08T11:33:00;19.50;91.30
39095;DHT22;24840;47.508;19.376;2023-10-08T11:35:27;19.40;91.40
39095;DHT22;24840;47.508;19.376;2023-10-08T11:37:59;19.30;90.70
39095;DHT22;24840;47.508;19.376;2023-10-08T11:40:26;19.10;90.80
39095;DHT22;24840;47.508;19.376;2023-10-08T11:43:05;19.00;90.50
39095;DHT22;24840;47.508;19.376;2023-10-08T11:45:31;18.90;90.40
39095;DHT22;24840;47.508;19.376;2023-10-08T11:48:14;18.90;90.50
39095;DHT22;24840;47.508;19.376;2023-10-08T11:50:44;18.80;90.20
39095;DHT22;24840;47.508;19.376;2023-10-08T11:53:10;18.80;89.20
39095;DHT22;24840;47.508;19.376;2023-10-08T11:55:38;18.70;90.20
39095;DHT22;24840;47.508;19.376;2023-10-08T11:58:08;18.80;90.10
39095;DHT22;24840;47.508;19.376;2023-10-08T12:00:41;18.70;89.30
39095;DHT22;24840;47.508;19.376;2023-10-08T12:03:11;18.60;89.50
39095;DHT22;24840;47.508;19.376;2023-10-08T12:05:39;18.60;88.70
39095;DHT22;24840;47.508;19.376;2023-10-08T12:08:18;18.60;88.30
39095;DHT22;24840;47.508;19.376;2023-10-08T12:10:46;18.50;88.30
39095;DHT22;24840;47.508;19.376;2023-10-08T12:13:14;18.50;88.90
39095;DHT22;24840;47.508;19.376;2023-10-08T12:15:42;18.40;88.90
39095;DHT22;24840;47.508;19.376;2023-10-08T12:18:10;18.30;89.60
39095;DHT22;24840;47.508;19.376;2023-10-08T12:20:50;18.20;89.80
39095;DHT22;24840;47.508;19.376;2023-10-08T12:23:16;18.00;90.10
39095;DHT22;24840;47.508;19.376;2023-10-08T12:25:55;18.00;90.10
39095;DHT22;24840;47.508;19.376;2023-10-08T12:28:22;17.90;90.00
39095;DHT22;24840;47.508;19.376;2023-10-08T12:30:49;17.80;90.10
39095;DHT22;24840;47.508;19.376;2023-10-08T12:33:18;17.80;90.20
39095;DHT22;24840;47.508;19.376;2023-10-08T12:35:47;17.70;90.40
39095;DHT22;24840;47.508;19.376;2023-10-08T12:38:14;17.80;89.90
39095;DHT22;24840;47.508;19.376;2023-10-08T12:40:40;17.70;89.60
39095;DHT22;24840;47.508;19.376;2023-10-08T12:43:19;17.70;89.70
39095;DHT22;24840;47.508;19.376;2023-10-08T12:45:51;17.70;89.70
39095;DHT22;24840;47.508;19.376;2023-10-08T12:48:26;17.60;90.20
39095;DHT22;24840;47.508;19.376;2023-10-08T12:50:54;17.50;89.60
39095;DHT22;24840;47.508;19.376;2023-10-08T12:53:27;17.50;89.30
39095;DHT22;24840;47.508;19.376;2023-10-08T12:56:02;17.50;87.80
39095;DHT22;24840;47.508;19.376;2023-10-08T12:58:35;17.50;88.30
39095;DHT22;24840;47.508;19.376;2023-10-08T13:01:17;17.60;87.90
39095;DHT22;24840;47.508;19.376;2023-10-08T13:03:47;17.60;88.40
39095;DHT22;24840;47.508;19.376;2023-10-08T13:06:20;17.60;87.10
39095;DHT22;24840;47.508;19.376;2023-10-08T13:08:54;17.50;86.40
39095;DHT22;24840;47.508;19.376;2023-10-08T13:11:21;17.50;86.40
39095;DHT22;24840;47.508;19.376;2023-10-08T13:13:52;17.40;86.60
39095;DHT22;24840;47.508;19.376;2023-10-08T13:16:19;17.50;86.10
39095;DHT22;24840;47.508;19.376;2023-10-08T13:18:47;17.30;87.40
39095;DHT22;24840;47.508;19.376;2023-10-08T13:21:13;17.30;87.00
39095;DHT22;24840;47.508;19.376;2023-10-08T13:23:39;17.20;86.40
39095;DHT22;24840;47.508;19.376;2023-10-08T13:26:05;17.00;84.90
39095;DHT22;24840;47.508;19.376;2023-10-08T13:28:33;16.90;84.70
39095;DHT22;24840;47.508;19.376;2023-10-08T13:31:03;16.90;85.50
39095;DHT22;24840;47.508;19.376;2023-10-08T13:33:36;16.80;86.30
39095;DHT22;24840;47.508;19.376;2023-10-08T13:36:08;16.90;86.00
39095;DHT22;24840;47.508;19.376;2023-10-08T13:38:37;16.90;85.70
39095;DHT22;24840;47.508;19.376;2023-10-08T13:41:07;16.90;87.10
39095;DHT22;24840;47.508;19.376;2023-10-08T13:43:47;16.80;86.40
39095;DHT22;24840;47.508;19.376;2023-10-08T13:46:15;16.70;86.70
39095;DHT22;24840;47.508;19.376;2023-10-08T13:48:44;16.70;86.10
39095;DHT22;24840;47.508;19.376;2023-10-08T13:51:20;16.70;87.10
39095;DHT22;24840;47.508;19.376;2023-10-08T13:53:58;16.70;85.40
39095;DHT22;24840;47.508;19.376;2023-10-08T13:56:29;16.60;84.60
39095;DHT22;24840;47.508;19.376;2023-10-08T13:58:59;16.70;84.90
39095;DHT22;24840;47.508;19.376;2023-10-08T14:01:46;16.70;85.90
39095;DHT22;24840;47.508;19.376;2023-10-08T14:04:17;16.80;84.50
39095;DHT22;24840;47.508;19.376;2023-10-08T14:06:51;16.70;84.80
39095;DHT22;24840;47.508;19.376;2023-10-08T14:09:19;16.70;85.60
39095;DHT22;24840;47.508;19.376;2023-10-08T14:11:56;16.50;83.60
39095;DHT22;24840;47.508;19.376;2023-10-08T14:14:22;16.40;85.40
39095;DHT22;24840;47.508;19.376;2023-10-08T14:16:55;16.40;85.40
39095;DHT22;24840;47.508;19.376;2023-10-08T14:19:25;16.50;86.70
39095;DHT22;24840;47.508;19.376;2023-10-08T14:22:02;16.60;86.00
39095;DHT22;24840;47.508;19.376;2023-10-08T14:24:34;16.60;87.50
39095;DHT22;24840;47.508;19.376;2023-10-08T14:27:04;16.40;85.00
39095;DHT22;24840;47.508;19.376;2023-10-08T14:29:39;16.50;85.30
39095;DHT22;24840;47.508;19.376;2023-10-08T14:32:10;16.50;85.50
39095;DHT22;24840;47.508;19.376;2023-10-08T14:34:37;16.40;84.40
39095;DHT22;24840;47.508;19.376;2023-10-08T14:37:12;16.40;84.30
39095;DHT22;24840;47.508;19.376;2023-10-08T14:39:57;16.30;84.20
39095;DHT22;24840;47.508;19.376;2023-10-08T14:42:42;16.20;84.00
39095;DHT22;24840;47.508;19.376;2023-10-08T14:45:31;16.20;83.00
39095;DHT22;24840;47.508;19.376;2023-10-08T14:47:59;16.20;83.40
39095;DHT22;24840;47.508;19.376;2023-10-08T14:50:26;16.20;84.20
39095;DHT22;24840;47.508;19.376;2023-10-08T14:52:58;16.30;84.90
39095;DHT22;24840;47.508;19.376;2023-10-08T14:55:31;16.30;84.00
39095;DHT22;24840;47.508;19.376;2023-10-08T14:57:59;16.10;82.20
39095;DHT22;24840;47.508;19.376;2023-10-08T15:00:31;16.10;83.30
39095;DHT22;24840;47.508;19.376;2023-10-08T15:02:57;16.00;84.40
39095;DHT22;24840;47.508;19.376;2023-10-08T15:05:28;15.90;83.50
39095;DHT22;24840;47.508;19.376;2023-10-08T15:07:54;16.00;83.70
39095;DHT22;24840;47.508;19.376;2023-10-08T15:10:24;15.60;82.60
39095;DHT22;24840;47.508;19.376;2023-10-08T15:12:51;15.60;83.20
39095;DHT22;24840;47.508;19.376;2023-10-08T15:15:18;15.60;82.80
39095;DHT22;24840;47.508;19.376;2023-10-08T15:17:45;15.50;83.30
39095;DHT22;24840;47.508;19.376;2023-10-08T15:20:14;15.60;82.40
39095;DHT22;24840;47.508;19.376;2023-10-08T15:22:42;15.50;81.90
39095;DHT22;24840;47.508;19.376;2023-10-08T15:25:10;15.50;81.90
39095;DHT22;24840;47.508;19.376;2023-10-08T15:27:39;15.40;82.10
39095;DHT22;24840;47.508;19.376;2023-10-08T15:30:10;15.30;83.20
39095;DHT22;24840;47.508;19.376;2023-10-08T15:32:38;15.10;83.40
39095;DHT22;24840;47.508;19.376;2023-10-08T15:35:06;15.00;82.10
39095;DHT22;24840;47.508;19.376;2023-10-08T15:37:38;14.90;81.70
39095;DHT22;24840;47.508;19.376;2023-10-08T15:40:05;14.90;82.10
39095;DHT22;24840;47.508;19.376;2023-10-08T15:42:36;14.70;83.80
39095;DHT22;24840;47.508;19.376;2023-10-08T15:45:03;14.70;83.10
39095;DHT22;24840;47.508;19.376;2023-10-08T15:47:30;14.60;83.50
39095;DHT22;24840;47.508;19.376;2023-10-08T15:49:59;14.60;84.00
39095;DHT22;24840;47.508;19.376;2023-10-08T15:52:25;14.60;85.20
39095;DHT22;24840;47.508;19.376;2023-10-08T15:54:51;14.50;84.00
39095;DHT22;24840;47.508;19.376;2023-10-08T15:57:17;14.60;85.20
39095;DHT22;24840;47.508;19.376;2023-10-08T15:59:42;14.50;85.00
39095;DHT22;24840;47.508;19.376;2023-10-08T16:02:08;14.30;86.00